Time;durP1;ratioP1;P1;durP2;ratioP2;P2;SDS_P1;SDS_P2;PMS_P1;PMS_P2;Temp;Humidity;BMP_temperature;BMP_pressure;BME280_temperature;BME280_humidity;BME280_pressure;Samples;Min_cycle;Max_cycle;Signal;HPM_P1;HPM_P2
2023/08/23 00:00:00;;;;;;;;;14.67;14.67;;;;;;;;5068519;28;8808;-66
2023/08/23 00:02:25;;;;;;;;;18.67;18.67;;;;;;;;5068610;28;8789;-67
2023/08/23 00:04:50;;;;;;;;;19.67;17.67;;;;;;;;5075552;28;8978;-67
2023/08/23 00:07:16;;;;;;;;;18.67;17.00;;;;;;;;5088806;28;8790;-67
2023/08/23 00:09:41;;;;;;;;;18.00;17.33;;;;;;;;5088709;28;8782;-67
2023/08/23 00:12:06;;;;;;;;;20.67;20.00;;;;;;;;5088386;28;8855;-67
2023/08/23 00:14:32;;;;;;;;;15.33;15.33;;;;;;;;5088526;28;8814;-67
2023/08/23 00:16:57;;;;;;;;;18.67;16.00;;;;;;;;5088664;28;8786;-67
2023/08/23 00:19:22;;;;;;;;;18.00;17.67;;;;;;;;5069769;28;8814;-67
2023/08/23 00:21:47;;;;;;;;;22.00;17.33;;;;;;;;5088370;28;8774;-67
2023/08/23 00:24:13;;;;;;;;;15.33;15.33;;;;;;;;5088189;28;8802;-68
2023/08/23 00:26:38;;;;;;;;;14.33;14.33;;;;;;;;5088462;28;9008;-67
2023/08/23 00:29:04;;;;;;;;;19.67;15.00;;;;;;;;5088262;28;9579;-67
2023/08/23 00:31:29;;;;;;;;;15.67;15.67;;;;;;;;5088295;28;8794;-66
2023/08/23 00:33:54;;;;;;;;;16.33;15.00;;;;;;;;5087890;28;9544;-67
2023/08/23 00:36:20;;;;;;;;;17.33;15.33;;;;;;;;5088091;28;8799;-66
2023/08/23 00:38:45;;;;;;;;;14.00;13.00;;;;;;;;5087858;28;8821;-66
2023/08/23 00:41:10;;;;;;;;;12.00;12.00;;;;;;;;5088236;28;8821;-66
2023/08/23 00:43:35;;;;;;;;;13.33;12.33;;;;;;;;5088176;28;8798;-67
2023/08/23 00:46:01;;;;;;;;;14.00;14.00;;;;;;;;5088273;28;8929;-67
2023/08/23 00:48:27;;;;;;;;;14.00;12.00;;;;;;;;5087890;28;9039;-67
2023/08/23 00:50:52;;;;;;;;;11.67;10.33;;;;;;;;5088042;28;8908;-67
2023/08/23 00:53:17;;;;;;;;;16.00;16.00;;;;;;;;5088092;28;8967;-66
2023/08/23 00:55:43;;;;;;;;;11.67;11.00;;;;;;;;5087418;28;8856;-67
2023/08/23 00:58:09;;;;;;;;;14.33;13.33;;;;;;;;5087642;28;8802;-67
2023/08/23 01:00:34;;;;;;;;;17.75;15.50;;;;;;;;5088113;28;8786;-67
2023/08/23 01:03:00;;;;;;;;;14.00;13.00;;;;;;;;5087895;28;8798;-67
2023/08/23 01:05:35;;;;;;;;;19.67;15.67;;;;;;;;5087950;28;8832;-67
2023/08/23 01:08:12;;;;;;;;;18.00;18.00;;;;;;;;5087578;28;8805;-67
2023/08/23 01:10:37;;;;;;;;;14.50;13.75;;;;;;;;5087778;28;8978;-67
2023/08/23 01:13:09;;;;;;;;;13.67;12.33;;;;;;;;5086859;28;8932;-67
2023/08/23 01:15:35;;;;;;;;;17.67;14.00;;;;;;;;5087497;28;8770;-67
2023/08/23 01:18:01;;;;;;;;;17.25;13.25;;;;;;;;5087634;28;8864;-67
2023/08/23 01:20:27;;;;;;;;;16.00;13.67;;;;;;;;5087526;28;8782;-67
2023/08/23 01:23:11;;;;;;;;;13.00;13.00;;;;;;;;5087576;28;8911;-67
2023/08/23 01:25:36;;;;;;;;;18.67;13.33;;;;;;;;5088068;28;8770;-68
2023/08/23 01:28:02;;;;;;;;;15.00;14.00;;;;;;;;5087708;28;8891;-67
2023/08/23 01:30:28;;;;;;;;;17.00;16.33;;;;;;;;5087908;28;8951;-68
2023/08/23 01:33:01;;;;;;;;;17.67;17.00;;;;;;;;5087721;28;8822;-67
2023/08/23 01:35:32;;;;;;;;;14.00;14.00;;;;;;;;5088167;28;8798;-68
2023/08/23 01:37:58;;;;;;;;;16.33;16.00;;;;;;;;5088206;28;9191;-66
2023/08/23 01:40:24;;;;;;;;;17.00;17.00;;;;;;;;5087504;28;9104;-67
2023/08/23 01:42:49;;;;;;;;;16.00;16.00;;;;;;;;5087814;28;8994;-67
2023/08/23 01:45:14;;;;;;;;;15.33;14.00;;;;;;;;5069498;28;8836;-67
2023/08/23 01:47:40;;;;;;;;;14.67;14.00;;;;;;;;5087612;28;8966;-67
2023/08/23 01:50:05;;;;;;;;;15.00;14.00;;;;;;;;5087484;28;8802;-66
2023/08/23 01:52:31;;;;;;;;;14.00;14.00;;;;;;;;5087577;28;8814;-66
2023/08/23 01:54:57;;;;;;;;;13.67;13.00;;;;;;;;5087744;28;8798;-67
2023/08/23 01:57:22;;;;;;;;;15.00;14.00;;;;;;;;5087564;28;8771;-67
2023/08/23 01:59:49;;;;;;;;;14.00;14.00;;;;;;;;5087834;28;8914;-67
2023/08/23 02:02:15;;;;;;;;;17.33;15.67;;;;;;;;5087531;28;8930;-67
2023/08/23 02:04:40;;;;;;;;;17.33;15.00;;;;;;;;5087288;28;8886;-67
2023/08/23 02:07:05;;;;;;;;;14.67;13.67;;;;;;;;5087041;28;8798;-67
2023/08/23 02:09:31;;;;;;;;;14.33;14.33;;;;;;;;5087670;28;8829;-67
2023/08/23 02:11:56;;;;;;;;;12.67;12.67;;;;;;;;5090831;28;8806;-67
2023/08/23 02:14:22;;;;;;;;;15.67;15.00;;;;;;;;5090650;28;8966;-66
2023/08/23 02:16:47;;;;;;;;;17.33;17.00;;;;;;;;5090640;28;8794;-67
2023/08/23 02:19:12;;;;;;;;;14.00;14.00;;;;;;;;5090577;28;8795;-67
2023/08/23 02:21:38;;;;;;;;;14.00;14.00;;;;;;;;5090770;28;8837;-67
2023/08/23 02:24:03;;;;;;;;;15.00;14.00;;;;;;;;5090440;28;9815;-67
2023/08/23 02:26:28;;;;;;;;;16.00;15.00;;;;;;;;5089937;28;8794;-67
2023/08/23 02:28:54;;;;;;;;;16.67;14.67;;;;;;;;5090231;28;8967;-67
2023/08/23 02:31:19;;;;;;;;;15.00;15.00;;;;;;;;5090058;28;8810;-67
2023/08/23 02:33:44;;;;;;;;;12.00;12.00;;;;;;;;5090262;28;8850;-66
2023/08/23 02:36:10;;;;;;;;;14.67;14.33;;;;;;;;5090469;28;8836;-67
2023/08/23 02:38:35;;;;;;;;;15.00;15.00;;;;;;;;5090132;28;8948;-67
2023/08/23 02:41:00;;;;;;;;;16.00;14.00;;;;;;;;5090190;28;8912;-66
2023/08/23 02:43:25;;;;;;;;;14.00;14.00;;;;;;;;5089927;28;8879;-66
2023/08/23 02:45:51;;;;;;;;;13.67;13.67;;;;;;;;5089587;28;8782;-68
2023/08/23 02:48:16;;;;;;;;;18.00;15.33;;;;;;;;5090066;28;8833;-67
2023/08/23 02:50:43;;;;;;;;;14.67;14.67;;;;;;;;5071455;28;8949;-68
2023/08/23 02:53:09;;;;;;;;;17.00;15.67;;;;;;;;5089595;28;8924;-68
2023/08/23 02:55:36;;;;;;;;;17.67;14.33;;;;;;;;5071231;28;9509;-67
2023/08/23 02:58:01;;;;;;;;;15.00;15.00;;;;;;;;5089447;28;8890;-72
2023/08/23 03:00:26;;;;;;;;;15.00;13.00;;;;;;;;5089483;28;9234;-68
2023/08/23 03:02:52;;;;;;;;;17.00;17.00;;;;;;;;5089431;28;8910;-68
2023/08/23 03:05:17;;;;;;;;;16.00;15.00;;;;;;;;5089893;28;9465;-68
2023/08/23 03:07:42;;;;;;;;;14.33;14.33;;;;;;;;5090572;28;8860;-71
2023/08/23 03:10:08;;;;;;;;;13.00;13.00;;;;;;;;5090325;28;8886;-71
2023/08/23 03:12:33;;;;;;;;;13.67;13.00;;;;;;;;5089777;28;8806;-71
2023/08/23 03:14:58;;;;;;;;;15.00;14.67;;;;;;;;5089758;28;8817;-70
2023/08/23 03:17:24;;;;;;;;;15.33;12.67;;;;;;;;5089708;28;8822;-70
2023/08/23 03:19:49;;;;;;;;;11.00;11.00;;;;;;;;5089425;28;8798;-71
2023/08/23 03:22:15;;;;;;;;;14.33;13.00;;;;;;;;5070867;28;8826;-71
2023/08/23 03:24:40;;;;;;;;;15.00;13.00;;;;;;;;5089589;28;8826;-70
2023/08/23 03:27:05;;;;;;;;;12.33;12.00;;;;;;;;5071180;28;8851;-71
2023/08/23 03:29:31;;;;;;;;;15.67;14.00;;;;;;;;5071224;28;8894;-71
2023/08/23 03:31:56;;;;;;;;;9.00;9.00;;;;;;;;5089537;28;8794;-71
2023/08/23 03:34:21;;;;;;;;;11.00;11.00;;;;;;;;5089517;28;8825;-71
2023/08/23 03:36:47;;;;;;;;;15.00;14.00;;;;;;;;5089535;28;9520;-71
2023/08/23 03:39:12;;;;;;;;;12.00;12.00;;;;;;;;5088703;28;8790;-71
2023/08/23 03:41:37;;;;;;;;;12.67;12.67;;;;;;;;5089038;28;8889;-71
2023/08/23 03:44:02;;;;;;;;;17.33;14.67;;;;;;;;5089104;28;8794;-69
2023/08/23 03:46:30;;;;;;;;;14.67;13.33;;;;;;;;5070520;28;9550;-71
2023/08/23 03:48:56;;;;;;;;;14.00;13.00;;;;;;;;5088710;28;8778;-71
2023/08/23 03:51:21;;;;;;;;;15.00;14.67;;;;;;;;5088666;28;9333;-69
2023/08/23 03:53:46;;;;;;;;;13.00;13.00;;;;;;;;5088635;28;8910;-71
2023/08/23 03:56:12;;;;;;;;;13.67;13.00;;;;;;;;5088738;28;9513;-71
2023/08/23 03:58:37;;;;;;;;;14.33;14.33;;;;;;;;5088524;28;8801;-72
2023/08/23 04:01:03;;;;;;;;;14.67;12.67;;;;;;;;5070021;28;8814;-71
2023/08/23 04:03:28;;;;;;;;;14.33;13.00;;;;;;;;5087990;28;8880;-71
2023/08/23 04:05:53;;;;;;;;;16.67;14.00;;;;;;;;5088081;28;9018;-70
2023/08/23 04:08:19;;;;;;;;;18.33;13.67;;;;;;;;5087902;28;8782;-70
2023/08/23 04:10:47;;;;;;;;;13.67;12.00;;;;;;;;5088069;28;8816;-70
2023/08/23 04:13:13;;;;;;;;;16.00;15.00;;;;;;;;5087970;28;8842;-71
2023/08/23 04:15:40;;;;;;;;;13.00;13.00;;;;;;;;5087604;28;9334;-70
2023/08/23 04:18:05;;;;;;;;;14.67;14.00;;;;;;;;5088115;28;8918;-70
2023/08/23 04:20:31;;;;;;;;;14.67;14.00;;;;;;;;5069960;28;10099;-70
2023/08/23 04:22:56;;;;;;;;;14.00;14.00;;;;;;;;5088054;28;8865;-70
2023/08/23 04:25:21;;;;;;;;;14.00;13.67;;;;;;;;5088207;28;8817;-71
2023/08/23 04:27:46;;;;;;;;;16.00;15.33;;;;;;;;5088153;28;8934;-70
2023/08/23 04:30:12;;;;;;;;;13.33;13.33;;;;;;;;5087977;28;8828;-70
2023/08/23 04:32:37;;;;;;;;;17.33;13.00;;;;;;;;5087390;28;8795;-70
2023/08/23 04:35:03;;;;;;;;;14.50;13.50;;;;;;;;5088052;28;8786;-70
2023/08/23 04:37:28;;;;;;;;;14.50;14.25;;;;;;;;5088251;28;8908;-71
2023/08/23 04:39:53;;;;;;;;;13.00;11.33;;;;;;;;5088355;28;8798;-71
2023/08/23 04:42:19;;;;;;;;;12.00;12.00;;;;;;;;5069849;28;8898;-71
2023/08/23 04:44:44;;;;;;;;;17.75;16.25;;;;;;;;5088532;28;8814;-71
2023/08/23 04:47:09;;;;;;;;;17.00;15.00;;;;;;;;5088423;28;8770;-70
2023/08/23 04:49:34;;;;;;;;;17.25;16.25;;;;;;;;5088333;28;8826;-71
2023/08/23 04:52:00;;;;;;;;;15.75;15.50;;;;;;;;5087903;28;8836;-71
2023/08/23 04:54:25;;;;;;;;;15.50;14.00;;;;;;;;5088339;28;8865;-70
2023/08/23 04:56:50;;;;;;;;;14.00;14.00;;;;;;;;5088531;28;8883;-70
2023/08/23 04:59:15;;;;;;;;;14.75;13.25;;;;;;;;5089119;28;8882;-71
2023/08/23 05:01:41;;;;;;;;;16.00;12.33;;;;;;;;5089000;28;8889;-71
2023/08/23 05:04:07;;;;;;;;;14.00;13.00;;;;;;;;5088528;28;8786;-70
2023/08/23 05:06:33;;;;;;;;;15.75;13.00;;;;;;;;5088439;28;8832;-71
2023/08/23 05:08:58;;;;;;;;;15.75;15.75;;;;;;;;5087907;28;9489;-71
2023/08/23 05:11:23;;;;;;;;;15.50;14.75;;;;;;;;5088469;28;8802;-69
2023/08/23 05:13:49;;;;;;;;;13.75;11.75;;;;;;;;5088215;28;9505;-71
2023/08/23 05:16:14;;;;;;;;;13.75;13.75;;;;;;;;5088394;28;9481;-79
2023/08/23 05:18:40;;;;;;;;;17.50;15.50;;;;;;;;5088447;28;8794;-73
2023/08/23 05:21:05;;;;;;;;;34.25;32.50;;;;;;;;5088497;28;8967;-72
2023/08/23 05:23:30;;;;;;;;;18.00;17.50;;;;;;;;5088473;28;8818;-73
2023/08/23 05:25:57;;;;;;;;;16.50;16.50;;;;;;;;5088041;28;8793;-72
2023/08/23 05:28:22;;;;;;;;;13.25;12.00;;;;;;;;5087744;28;8826;-71
2023/08/23 05:30:48;;;;;;;;;15.00;14.50;;;;;;;;5087541;28;10344;-72
2023/08/23 05:33:13;;;;;;;;;13.00;12.00;;;;;;;;5087382;28;8813;-72
2023/08/23 05:35:42;;;;;;;;;13.75;12.75;;;;;;;;5087430;28;8904;-73
2023/08/23 05:38:09;;;;;;;;;18.25;15.00;;;;;;;;5086976;28;8774;-73
2023/08/23 05:40:35;;;;;;;;;14.50;14.25;;;;;;;;5087148;28;9718;-72
2023/08/23 05:43:00;;;;;;;;;14.00;13.00;;;;;;;;5086985;28;9739;-75
2023/08/23 05:45:26;;;;;;;;;15.50;14.00;;;;;;;;5089396;28;8770;-73
2023/08/23 05:47:55;;;;;;;;;15.00;15.00;;;;;;;;5091477;28;8797;-72
2023/08/23 05:50:21;;;;;;;;;12.50;12.00;;;;;;;;5091645;28;9653;-71
2023/08/23 05:52:46;;;;;;;;;19.00;14.75;;;;;;;;5091365;28;9561;-79
2023/08/23 05:55:23;;;;;;;;;12.33;11.67;;;;;;;;5104833;27;13449;-72
2023/08/23 05:57:48;;;;;;;;;12.00;11.00;;;;;;;;5106173;28;9357;-73
2023/08/23 06:00:14;;;;;;;;;10.00;10.00;;;;;;;;5105307;28;8815;-73
2023/08/23 06:02:40;;;;;;;;;11.33;10.00;;;;;;;;5105486;28;8788;-72
2023/08/23 06:05:06;;;;;;;;;12.33;12.33;;;;;;;;5103432;28;9233;-76
2023/08/23 06:07:31;;;;;;;;;11.00;11.00;;;;;;;;5105655;28;8830;-73
2023/08/23 06:09:57;;;;;;;;;16.00;11.00;;;;;;;;5106036;28;8902;-84
2023/08/23 06:12:25;;;;;;;;;15.00;14.00;;;;;;;;5105930;28;8804;-74
2023/08/23 06:14:50;;;;;;;;;14.33;13.33;;;;;;;;5105312;28;8939;-71
2023/08/23 06:17:16;;;;;;;;;14.00;11.00;;;;;;;;5105749;28;9424;-71
2023/08/23 06:19:41;;;;;;;;;11.33;10.00;;;;;;;;5105581;28;8792;-71
2023/08/23 06:22:07;;;;;;;;;11.00;11.00;;;;;;;;5106032;28;8871;-76
2023/08/23 06:24:32;;;;;;;;;13.33;10.00;;;;;;;;5105133;28;11231;-69
2023/08/23 06:26:58;;;;;;;;;15.33;11.67;;;;;;;;5103342;28;8776;-70
2023/08/23 06:29:23;;;;;;;;;10.33;10.00;;;;;;;;5103422;28;8823;-70
2023/08/23 06:31:48;;;;;;;;;12.33;12.00;;;;;;;;5103198;28;8804;-70
2023/08/23 06:34:13;;;;;;;;;11.67;11.00;;;;;;;;5102909;28;8860;-70
2023/08/23 06:36:39;;;;;;;;;13.00;12.00;;;;;;;;5102692;28;8906;-73
2023/08/23 06:39:04;;;;;;;;;18.33;15.00;;;;;;;;5102982;28;9560;-72
2023/08/23 06:41:29;;;;;;;;;13.00;13.00;;;;;;;;5103533;28;8800;-72
2023/08/23 06:43:59;;;;;;;;;16.00;15.00;;;;;;;;5105013;28;8775;-72
2023/08/23 06:46:24;;;;;;;;;16.67;15.67;;;;;;;;5102545;28;9144;-71
2023/08/23 06:48:49;;;;;;;;;15.67;15.00;;;;;;;;5104718;28;9258;-73
2023/08/23 06:51:15;;;;;;;;;13.00;11.33;;;;;;;;5104512;28;8887;-72
2023/08/23 06:53:40;;;;;;;;;22.00;16.00;;;;;;;;5103892;28;8878;-73
2023/08/23 06:56:09;;;;;;;;;17.00;13.00;;;;;;;;5104730;28;8844;-69
2023/08/23 06:58:35;;;;;;;;;19.00;14.00;;;;;;;;5105223;28;8791;-69
2023/08/23 07:01:01;;;;;;;;;17.00;15.33;;;;;;;;5101050;28;9323;-69
2023/08/23 07:03:26;;;;;;;;;27.25;25.00;;;;;;;;5104937;28;8792;-69
2023/08/23 07:05:52;;;;;;;;;16.00;14.33;;;;;;;;5095960;28;9801;-70
2023/08/23 07:08:20;;;;;;;;;14.00;11.00;;;;;;;;5089520;28;8868;-71
2023/08/23 07:10:45;;;;;;;;;16.00;16.00;;;;;;;;5090314;28;9546;-69
2023/08/23 07:13:11;;;;;;;;;20.25;19.00;;;;;;;;5090143;28;9310;-69
2023/08/23 07:15:36;;;;;;;;;16.33;15.00;;;;;;;;5090322;28;8784;-68
2023/08/23 07:18:01;;;;;;;;;17.33;16.33;;;;;;;;5091178;28;8788;-69
2023/08/23 07:20:27;;;;;;;;;17.67;15.67;;;;;;;;5090509;28;9614;-69
2023/08/23 07:22:52;;;;;;;;;15.00;14.00;;;;;;;;5090781;28;8804;-69
2023/08/23 07:25:18;;;;;;;;;15.33;15.33;;;;;;;;5089146;28;8816;-67
2023/08/23 07:27:43;;;;;;;;;17.00;15.67;;;;;;;;5090111;28;8946;-69
2023/08/23 07:30:09;;;;;;;;;17.67;16.67;;;;;;;;5089774;28;8828;-69
2023/08/23 07:32:34;;;;;;;;;18.67;15.67;;;;;;;;5090760;28;8800;-69
2023/08/23 07:35:03;;;;;;;;;16.00;15.00;;;;;;;;5090291;28;8815;-68
2023/08/23 07:37:28;;;;;;;;;18.00;16.00;;;;;;;;5090675;28;9397;-68
2023/08/23 07:39:53;;;;;;;;;18.67;18.33;;;;;;;;5090422;28;9158;-69
2023/08/23 07:42:19;;;;;;;;;16.33;15.33;;;;;;;;5090259;28;8800;-69
2023/08/23 07:44:44;;;;;;;;;14.00;14.00;;;;;;;;5090267;28;9514;-69
2023/08/23 07:47:09;;;;;;;;;18.00;17.67;;;;;;;;5090772;28;8826;-70
2023/08/23 07:49:35;;;;;;;;;15.00;14.67;;;;;;;;5089841;28;8965;-71
2023/08/23 07:52:00;;;;;;;;;16.33;14.33;;;;;;;;5090482;28;8838;-69
2023/08/23 07:54:25;;;;;;;;;17.67;17.67;;;;;;;;5089850;28;8843;-70
2023/08/23 07:56:50;;;;;;;;;17.67;16.00;;;;;;;;5090228;28;8804;-69
2023/08/23 07:59:16;;;;;;;;;19.00;16.00;;;;;;;;5088530;28;8812;-70
2023/08/23 08:01:41;;;;;;;;;15.33;15.33;;;;;;;;5089677;28;8780;-68
2023/08/23 08:04:06;;;;;;;;;17.67;17.00;;;;;;;;5089672;28;8831;-69
2023/08/23 08:06:32;;;;;;;;;16.00;15.00;;;;;;;;5090030;28;8784;-68
2023/08/23 08:08:57;;;;;;;;;15.00;15.00;;;;;;;;5089972;28;8881;-71
2023/08/23 08:11:22;;;;;;;;;18.67;17.00;;;;;;;;5090064;28;8827;-73
2023/08/23 08:13:48;;;;;;;;;16.00;15.00;;;;;;;;5090036;28;8812;-71
2023/08/23 08:16:14;;;;;;;;;14.33;14.33;;;;;;;;5090388;28;8946;-71
2023/08/23 08:18:39;;;;;;;;;15.50;13.50;;;;;;;;5090094;28;8811;-71
2023/08/23 08:21:05;;;;;;;;;14.00;14.00;;;;;;;;5091505;28;8784;-73
2023/08/23 08:23:31;;;;;;;;;28.33;28.33;;;;;;;;5090207;28;8799;-70
2023/08/23 08:25:56;;;;;;;;;15.00;13.33;;;;;;;;5089719;28;8789;-72
2023/08/23 08:28:22;;;;;;;;;12.67;11.00;;;;;;;;5089457;28;8883;-75
2023/08/23 08:30:47;;;;;;;;;31.00;28.00;;;;;;;;5090128;28;8807;-83
2023/08/23 08:33:12;;;;;;;;;25.67;24.00;;;;;;;;5090891;28;8776;-82
2023/08/23 08:35:38;;;;;;;;;15.33;14.33;;;;;;;;5090715;28;8800;-78
2023/08/23 08:38:03;;;;;;;;;20.00;16.00;;;;;;;;5090778;28;8898;-79
2023/08/23 08:40:28;;;;;;;;;14.67;13.67;;;;;;;;5090532;28;8804;-79
2023/08/23 08:42:54;;;;;;;;;18.00;18.00;;;;;;;;5090305;28;8961;-81
2023/08/23 08:45:20;;;;;;;;;16.67;14.67;;;;;;;;5091056;28;8796;-82
2023/08/23 08:47:46;;;;;;;;;17.00;16.60;;;;;;;;5091103;28;8812;-80
2023/08/23 08:50:12;;;;;;;;;15.00;14.75;;;;;;;;5090146;28;8792;-75
2023/08/23 08:52:40;;;;;;;;;28.75;27.00;;;;;;;;5089556;28;8819;-77
2023/08/23 08:55:05;;;;;;;;;19.20;16.80;;;;;;;;5089451;28;8796;-77
2023/08/23 08:57:32;;;;;;;;;30.33;27.33;;;;;;;;5089035;28;8944;-75
2023/08/23 08:59:58;;;;;;;;;17.80;17.40;;;;;;;;5089880;28;8795;-78
2023/08/23 09:02:25;;;;;;;;;29.00;27.67;;;;;;;;5089415;28;8820;-79
2023/08/23 09:04:51;;;;;;;;;19.25;18.75;;;;;;;;5089629;28;8792;-77
2023/08/23 09:07:16;;;;;;;;;23.67;23.67;;;;;;;;5089589;28;8839;-78
2023/08/23 09:09:43;;;;;;;;;17.75;16.75;;;;;;;;5090610;28;8815;-77
2023/08/23 09:12:08;;;;;;;;;25.75;24.75;;;;;;;;5092119;28;8792;-76
2023/08/23 09:14:33;;;;;;;;;14.75;14.75;;;;;;;;5097416;28;8872;-78
2023/08/23 09:16:59;;;;;;;;;14.50;14.50;;;;;;;;5099101;28;9503;-80
2023/08/23 09:19:24;;;;;;;;;13.75;10.75;;;;;;;;5088205;28;8918;-77
2023/08/23 09:21:49;;;;;;;;;13.50;13.25;;;;;;;;5092716;28;8825;-75
2023/08/23 09:24:15;;;;;;;;;18.50;17.25;;;;;;;;5088940;28;8856;-75
2023/08/23 09:26:41;;;;;;;;;26.00;25.00;;;;;;;;5092535;28;8856;-75
2023/08/23 09:29:06;;;;;;;;;17.75;17.75;;;;;;;;5088728;28;8796;-79
2023/08/23 09:31:32;;;;;;;;;14.50;14.50;;;;;;;;5089362;28;8796;-77
2023/08/23 09:33:59;;;;;;;;;12.50;11.50;;;;;;;;5089189;28;8839;-80
2023/08/23 09:36:25;;;;;;;;;33.75;30.50;;;;;;;;5088833;28;8816;-75
2023/08/23 09:38:50;;;;;;;;;18.60;17.20;;;;;;;;5088470;28;8804;-73
2023/08/23 09:41:15;;;;;;;;;10.75;10.75;;;;;;;;5089049;28;8793;-75
2023/08/23 09:43:42;;;;;;;;;13.50;12.50;;;;;;;;5093940;28;8792;-72
2023/08/23 09:46:08;;;;;;;;;22.80;20.20;;;;;;;;5088333;28;8914;-73
2023/08/23 09:48:33;;;;;;;;;12.75;12.75;;;;;;;;5088372;28;9116;-73
2023/08/23 09:51:00;;;;;;;;;17.75;16.25;;;;;;;;5092855;28;11555;-73
2023/08/23 09:53:28;;;;;;;;;13.60;13.60;;;;;;;;5099268;28;8845;-72
2023/08/23 09:55:53;;;;;;;;;11.00;11.00;;;;;;;;5109114;28;8785;-72
2023/08/23 09:58:19;;;;;;;;;18.50;17.50;;;;;;;;5108990;28;8804;-74
2023/08/23 10:00:46;;;;;;;;;25.75;25.50;;;;;;;;5105942;28;8843;-72
2023/08/23 10:03:12;;;;;;;;;13.80;13.00;;;;;;;;5093507;28;8788;-71
2023/08/23 10:05:38;;;;;;;;;17.50;17.50;;;;;;;;5088762;28;8765;-72
2023/08/23 10:08:04;;;;;;;;;18.25;18.25;;;;;;;;5090791;28;8788;-72
2023/08/23 10:10:30;;;;;;;;;21.50;21.50;;;;;;;;5091920;28;9574;-72
2023/08/23 10:12:58;;;;;;;;;21.00;20.75;;;;;;;;5093530;28;8788;-72
2023/08/23 10:15:29;;;;;;;;;17.80;17.00;;;;;;;;5088054;28;8835;-72
2023/08/23 10:17:55;;;;;;;;;22.00;21.00;;;;;;;;5088278;28;8868;-73
2023/08/23 10:20:22;;;;;;;;;24.75;23.00;;;;;;;;5088054;28;8788;-72
2023/08/23 10:22:47;;;;;;;;;24.25;23.75;;;;;;;;5087015;28;8812;-72
2023/08/23 10:25:17;;;;;;;;;20.67;20.67;;;;;;;;5088468;28;8953;-73
2023/08/23 10:27:44;;;;;;;;;16.25;15.25;;;;;;;;5088087;28;8812;-72
2023/08/23 10:30:14;;;;;;;;;22.00;22.00;;;;;;;;5087853;28;8780;-73
2023/08/23 10:32:43;;;;;;;;;20.00;20.00;;;;;;;;5087858;28;8776;-74
2023/08/23 10:35:28;;;;;;;;;22.00;20.00;;;;;;;;5088135;28;8847;-75
2023/08/23 10:37:53;;;;;;;;;24.00;21.75;;;;;;;;5088499;28;8807;-76
2023/08/23 10:40:20;;;;;;;;;21.00;21.00;;;;;;;;5089542;28;8844;-76
2023/08/23 10:42:45;;;;;;;;;25.75;24.25;;;;;;;;5110500;28;8803;-77
2023/08/23 10:45:11;;;;;;;;;18.33;16.33;;;;;;;;5092773;28;8792;-75
2023/08/23 10:47:37;;;;;;;;;16.00;15.33;;;;;;;;5091981;28;8811;-75
2023/08/23 10:50:03;;;;;;;;;19.67;19.67;;;;;;;;5092378;28;8795;-79
2023/08/23 10:52:29;;;;;;;;;20.25;19.50;;;;;;;;5091522;28;8923;-74
2023/08/23 10:54:55;;;;;;;;;12.33;12.33;;;;;;;;5091989;28;8878;-74
2023/08/23 10:57:20;;;;;;;;;21.75;21.50;;;;;;;;5089701;28;9062;-74
2023/08/23 10:59:45;;;;;;;;;19.67;18.00;;;;;;;;5091870;28;8841;-74
2023/08/23 11:02:11;;;;;;;;;21.67;19.67;;;;;;;;5091633;28;8818;-74
2023/08/23 11:04:37;;;;;;;;;17.50;17.50;;;;;;;;5092124;28;8853;-81
2023/08/23 11:07:02;;;;;;;;;18.33;18.33;;;;;;;;5091836;28;8814;-77
2023/08/23 11:09:28;;;;;;;;;15.00;13.00;;;;;;;;5091956;28;8879;-76
2023/08/23 11:11:53;;;;;;;;;21.00;21.00;;;;;;;;5092014;28;8827;-75
2023/08/23 11:14:19;;;;;;;;;18.67;17.67;;;;;;;;5091856;28;9002;-76
2023/08/23 11:16:44;;;;;;;;;9.67;9.00;;;;;;;;5090595;28;9550;-77
2023/08/23 11:19:10;;;;;;;;;9.67;8.67;;;;;;;;5091237;28;8831;-76
2023/08/23 11:21:35;;;;;;;;;9.67;9.67;;;;;;;;5091427;28;8911;-75
2023/08/23 11:24:01;;;;;;;;;10.33;8.00;;;;;;;;5090488;28;8842;-76
2023/08/23 11:26:27;;;;;;;;;7.00;7.00;;;;;;;;5089994;28;8820;-77
2023/08/23 11:28:52;;;;;;;;;8.00;8.00;;;;;;;;5092275;28;8942;-77
2023/08/23 11:31:17;;;;;;;;;9.33;9.33;;;;;;;;5092338;28;8830;-75
2023/08/23 11:33:43;;;;;;;;;11.67;10.00;;;;;;;;5091952;28;8822;-74
2023/08/23 11:36:09;;;;;;;;;19.33;17.33;;;;;;;;5091672;28;8815;-74
2023/08/23 11:38:35;;;;;;;;;15.50;14.00;;;;;;;;5089689;28;9587;-74
2023/08/23 11:41:00;;;;;;;;;17.67;17.00;;;;;;;;5089505;28;8824;-73
2023/08/23 11:43:26;;;;;;;;;9.67;9.67;;;;;;;;5090037;28;8804;-73
2023/08/23 11:45:52;;;;;;;;;21.25;20.75;;;;;;;;5090415;28;8808;-73
2023/08/23 11:48:17;;;;;;;;;21.00;19.00;;;;;;;;5090354;28;8877;-74
2023/08/23 11:50:44;;;;;;;;;17.33;17.33;;;;;;;;5090465;28;8835;-74
2023/08/23 11:53:09;;;;;;;;;22.00;21.50;;;;;;;;5089990;28;8796;-73
2023/08/23 11:55:34;;;;;;;;;18.33;17.67;;;;;;;;5091491;28;8810;-75
2023/08/23 11:58:02;;;;;;;;;7.67;7.67;;;;;;;;5090602;28;9603;-73
2023/08/23 12:00:27;;;;;;;;;18.00;16.75;;;;;;;;5088632;28;8895;-73
2023/08/23 12:02:53;;;;;;;;;16.33;16.33;;;;;;;;5089977;28;8820;-73
2023/08/23 12:05:19;;;;;;;;;19.00;19.00;;;;;;;;5090673;28;8914;-75
2023/08/23 12:07:47;;;;;;;;;7.75;7.75;;;;;;;;5090384;28;8804;-77
2023/08/23 12:10:12;;;;;;;;;18.00;16.25;;;;;;;;5090537;28;8784;-76
2023/08/23 12:12:38;;;;;;;;;7.00;7.00;;;;;;;;5090697;28;8792;-76
2023/08/23 12:15:04;;;;;;;;;18.33;16.33;;;;;;;;5090498;28;8800;-78
2023/08/23 12:17:29;;;;;;;;;21.25;20.25;;;;;;;;5090350;28;8807;-82
2023/08/23 12:19:54;;;;;;;;;12.00;10.67;;;;;;;;5089766;28;8796;-76
2023/08/23 12:22:20;;;;;;;;;20.00;18.00;;;;;;;;5089800;28;8872;-76
2023/08/23 12:24:45;;;;;;;;;16.00;15.33;;;;;;;;5090098;28;8851;-77
2023/08/23 12:27:10;;;;;;;;;18.00;15.00;;;;;;;;5089627;28;9051;-71
2023/08/23 12:29:37;;;;;;;;;19.33;15.33;;;;;;;;5089601;28;8796;-71
2023/08/23 12:32:03;;;;;;;;;18.00;17.25;;;;;;;;5090251;28;8784;-78
2023/08/23 12:34:29;;;;;;;;;19.33;17.33;;;;;;;;5090125;28;9635;-82
2023/08/23 12:36:55;;;;;;;;;18.25;17.00;;;;;;;;5090102;28;9583;-80
2023/08/23 12:39:21;;;;;;;;;15.33;14.00;;;;;;;;5091035;28;8780;-79
2023/08/23 12:41:47;;;;;;;;;20.00;18.50;;;;;;;;5090553;28;8792;-78
2023/08/23 12:44:12;;;;;;;;;11.33;10.33;;;;;;;;5089248;28;8803;-83
2023/08/23 12:46:37;;;;;;;;;7.00;7.00;;;;;;;;5091040;28;8807;-79
2023/08/23 12:49:07;;;;;;;;;17.00;16.33;;;;;;;;5090861;28;8903;-78
2023/08/23 12:51:32;;;;;;;;;18.75;18.75;;;;;;;;5090024;28;8811;-80
2023/08/23 12:53:57;;;;;;;;;15.33;15.33;;;;;;;;5090742;28;8853;-79
2023/08/23 12:56:22;;;;;;;;;13.00;12.67;;;;;;;;5091101;28;8804;-85
2023/08/23 12:58:48;;;;;;;;;10.67;9.67;;;;;;;;5090454;28;8799;-77
2023/08/23 13:01:13;;;;;;;;;16.00;15.33;;;;;;;;5096484;28;8824;-82
2023/08/23 13:03:39;;;;;;;;;22.00;19.33;;;;;;;;5093989;28;8898;-88
2023/08/23 13:06:04;;;;;;;;;12.33;11.33;;;;;;;;5108829;28;8832;-85
2023/08/23 13:08:29;;;;;;;;;15.00;15.00;;;;;;;;5092173;28;8902;-84
2023/08/23 13:10:55;;;;;;;;;13.00;12.33;;;;;;;;5091359;28;8932;-76
2023/08/23 13:13:20;;;;;;;;;22.00;19.00;;;;;;;;5090809;28;8788;-83
2023/08/23 13:15:45;;;;;;;;;14.67;13.00;;;;;;;;5091221;28;8922;-83
2023/08/23 13:18:10;;;;;;;;;11.00;11.00;;;;;;;;5090655;28;8819;-78
2023/08/23 13:20:36;;;;;;;;;14.00;11.33;;;;;;;;5089592;28;8792;-77
2023/08/23 13:23:01;;;;;;;;;10.33;7.00;;;;;;;;5089994;28;8788;-77
2023/08/23 13:25:26;;;;;;;;;15.33;14.00;;;;;;;;5089293;28;8831;-74
2023/08/23 13:27:52;;;;;;;;;16.00;16.00;;;;;;;;5089035;28;8792;-75
2023/08/23 13:30:17;;;;;;;;;9.67;9.67;;;;;;;;5087763;28;8916;-74
2023/08/23 13:32:42;;;;;;;;;15.67;14.67;;;;;;;;5088893;28;8886;-74
2023/08/23 13:35:07;;;;;;;;;17.00;14.67;;;;;;;;5086752;28;8828;-74
2023/08/23 13:37:34;;;;;;;;;16.33;14.67;;;;;;;;5089099;28;8879;-75
2023/08/23 13:39:59;;;;;;;;;13.25;13.00;;;;;;;;5088636;28;8792;-75
2023/08/23 13:42:25;;;;;;;;;16.00;12.67;;;;;;;;5088430;28;8788;-77
2023/08/23 13:44:50;;;;;;;;;6.33;6.33;;;;;;;;5087603;28;9530;-70
2023/08/23 13:47:15;;;;;;;;;10.00;9.33;;;;;;;;5087586;28;9494;-71
2023/08/23 13:49:41;;;;;;;;;9.33;8.67;;;;;;;;5087876;28;8796;-71
2023/08/23 13:52:06;;;;;;;;;13.00;12.67;;;;;;;;5087763;28;8840;-75
2023/08/23 13:54:31;;;;;;;;;14.67;10.67;;;;;;;;5085148;28;8866;-75
2023/08/23 13:56:56;;;;;;;;;10.33;10.33;;;;;;;;5088571;28;8886;-75
2023/08/23 13:59:22;;;;;;;;;13.00;12.00;;;;;;;;5088288;28;8808;-75
2023/08/23 14:01:47;;;;;;;;;12.67;11.00;;;;;;;;5088311;28;8965;-74
2023/08/23 14:04:13;;;;;;;;;10.33;9.00;;;;;;;;5088758;28;8800;-75
2023/08/23 14:06:38;;;;;;;;;14.00;14.00;;;;;;;;5088405;28;8784;-75
2023/08/23 14:09:03;;;;;;;;;11.33;11.33;;;;;;;;5087903;28;8846;-76
2023/08/23 14:11:30;;;;;;;;;9.67;9.67;;;;;;;;5088643;28;8920;-75
2023/08/23 14:13:56;;;;;;;;;9.00;9.00;;;;;;;;5087553;28;8966;-75
2023/08/23 14:16:21;;;;;;;;;14.00;12.00;;;;;;;;5090917;28;8812;-75
2023/08/23 14:18:46;;;;;;;;;8.33;8.00;;;;;;;;5092540;28;9479;-76
2023/08/23 14:21:12;;;;;;;;;14.67;13.00;;;;;;;;5092257;28;8960;-75